Time;durP1;ratioP1;P1;durP2;ratioP2;P2;SDS_P1;SDS_P2;PMS_P1;PMS_P2;Temp;Humidity;BMP_temperature;BMP_pressure;BME280_temperature;BME280_humidity;BME280_pressure;Samples;Min_cycle;Max_cycle;Signal;HPM_P1;HPM_P2
2022/06/10 00:01:40;;;;;;;9.05;2.17;;;13.00;99.90;;;;;;5070784;28;20044;-74
2022/06/10 00:04:05;;;;;;;5.13;2.30;;;12.90;99.90;;;;;;5071076;28;20040;-74
2022/06/10 00:06:31;;;;;;;9.45;2.38;;;12.90;99.90;;;;;;5072409;28;20040;-75
2022/06/10 00:08:57;;;;;;;6.15;2.42;;;12.90;99.90;;;;;;5072274;28;20036;-74
2022/06/10 00:11:22;;;;;;;8.05;2.58;;;12.90;99.90;;;;;;5070566;28;20045;-74
2022/06/10 00:13:48;;;;;;;7.13;2.40;;;12.80;99.90;;;;;;5070956;28;20505;-74
2022/06/10 00:16:17;;;;;;;7.63;2.22;;;12.80;99.90;;;;;;5070908;28;20082;-74
2022/06/10 00:18:43;;;;;;;6.95;2.13;;;12.80;99.90;;;;;;5071068;28;20040;-74
2022/06/10 00:21:12;;;;;;;8.40;2.22;;;12.70;99.90;;;;;;5070561;28;20514;-75
2022/06/10 00:23:38;;;;;;;4.85;2.00;;;12.70;99.90;;;;;;5070997;28;20032;-74
2022/06/10 00:26:05;;;;;;;6.68;2.35;;;12.70;99.90;;;;;;5071017;28;20078;-74
2022/06/10 00:28:31;;;;;;;6.57;2.28;;;12.60;99.90;;;;;;5071008;28;20047;-75
2022/06/10 00:30:57;;;;;;;7.03;2.40;;;12.60;99.90;;;;;;5070191;28;20040;-75
2022/06/10 00:33:23;;;;;;;5.00;2.10;;;12.60;99.90;;;;;;5070688;28;20430;-74
2022/06/10 00:35:48;;;;;;;6.88;2.30;;;12.60;99.90;;;;;;5070629;28;20481;-74
2022/06/10 00:38:14;;;;;;;4.32;2.45;;;12.60;99.90;;;;;;5072112;28;20405;-74
2022/06/10 00:40:44;;;;;;;4.75;2.15;;;12.60;99.90;;;;;;5070237;28;20502;-74
2022/06/10 00:43:15;;;;;;;7.53;2.65;;;12.60;99.90;;;;;;5070499;28;20480;-75
2022/06/10 00:45:52;;;;;;;8.00;2.72;;;12.50;99.90;;;;;;5070696;28;20044;-74
2022/06/10 00:48:31;;;;;;;3.80;2.00;;;12.50;99.90;;;;;;5070525;28;20559;-75
2022/06/10 00:51:02;;;;;;;4.63;2.30;;;12.40;99.90;;;;;;5070282;28;20051;-74
2022/06/10 00:53:32;;;;;;;4.95;2.10;;;12.40;99.90;;;;;;5070539;28;20064;-75
2022/06/10 00:56:00;;;;;;;7.85;2.30;;;12.40;99.90;;;;;;5070627;28;20123;-74
2022/06/10 00:59:17;;;;;;;7.30;2.38;;;12.40;99.90;;;;;;5070452;28;20117;-74
2022/06/10 01:01:44;;;;;;;7.72;2.42;;;12.40;99.90;;;;;;5065581;28;20065;-74
2022/06/10 01:04:10;;;;;;;6.60;2.30;;;12.30;99.90;;;;;;5087122;28;20037;-74
2022/06/10 01:06:36;;;;;;;5.40;2.25;;;12.40;99.90;;;;;;5104016;28;20122;-74
2022/06/10 01:09:02;;;;;;;7.07;2.38;;;12.30;99.90;;;;;;5070314;28;20044;-74
2022/06/10 01:11:54;;;;;;;4.60;2.22;;;12.40;99.90;;;;;;5071255;28;20051;-75
2022/06/10 01:14:57;;;;;;;7.30;2.67;;;12.30;99.90;;;;;;5070257;28;20119;-74
2022/06/10 01:17:47;;;;;;;8.45;2.97;;;12.30;99.90;;;;;;5070232;28;20040;-75
2022/06/10 01:20:45;;;;;;;8.75;2.28;;;12.30;99.90;;;;;;5069994;28;20043;-74
2022/06/10 01:23:36;;;;;;;6.75;2.58;;;12.30;99.90;;;;;;5061234;28;20049;-74
2022/06/10 01:26:25;;;;;;;6.45;2.45;;;12.20;99.90;;;;;;5070414;28;20036;-74
2022/06/10 01:29:09;;;;;;;4.70;2.70;;;12.10;99.90;;;;;;5070095;28;20043;-74
2022/06/10 01:31:46;;;;;;;4.93;2.58;;;12.10;99.90;;;;;;5069575;28;20036;-74
2022/06/10 01:34:30;;;;;;;8.57;3.47;;;12.10;99.90;;;;;;5069965;28;20529;-74
2022/06/10 01:37:15;;;;;;;11.68;3.60;;;12.10;99.90;;;;;;5071317;28;20083;-74
2022/06/10 01:39:49;;;;;;;7.95;2.83;;;12.00;99.90;;;;;;5069936;28;20075;-75
2022/06/10 01:42:25;;;;;;;7.93;2.88;;;12.00;99.90;;;;;;5069671;28;20056;-74
2022/06/10 01:45:00;;;;;;;5.50;2.58;;;12.00;99.90;;;;;;5072121;28;20141;-74
2022/06/10 01:47:36;;;;;;;6.68;3.03;;;12.00;99.90;;;;;;5073822;28;20040;-74
2022/06/10 01:50:20;;;;;;;11.73;3.08;;;12.00;99.90;;;;;;5073461;28;20068;-74
2022/06/10 01:52:53;;;;;;;7.32;3.03;;;12.00;99.90;;;;;;5073608;28;20063;-74
2022/06/10 01:55:26;;;;;;;6.93;3.10;;;12.00;99.90;;;;;;5073642;28;20043;-74
2022/06/10 01:57:54;;;;;;;8.37;3.03;;;12.00;99.90;;;;;;5056889;28;20082;-74
2022/06/10 02:00:25;;;;;;;7.10;3.28;;;12.00;99.90;;;;;;5073407;28;20283;-74
2022/06/10 02:02:56;;;;;;;7.63;3.40;;;12.00;99.90;;;;;;5074662;28;20044;-74
2022/06/10 02:05:24;;;;;;;7.47;2.90;;;11.90;99.90;;;;;;5073535;28;20045;-74
2022/06/10 02:07:56;;;;;;;9.27;4.10;;;11.90;99.90;;;;;;5073331;28;20055;-75
2022/06/10 02:10:36;;;;;;;12.20;3.30;;;11.90;99.90;;;;;;5073315;28;20044;-75
2022/06/10 02:13:10;;;;;;;11.57;3.40;;;11.90;99.90;;;;;;5073295;28;20445;-74
2022/06/10 02:15:41;;;;;;;7.47;3.17;;;11.90;99.90;;;;;;5073358;28;20421;-74
2022/06/10 02:18:13;;;;;;;10.63;4.00;;;12.00;99.90;;;;;;5074653;28;20043;-74
2022/06/10 02:20:49;;;;;;;10.80;3.50;;;11.90;99.90;;;;;;5072888;28;20485;-74
2022/06/10 02:23:20;;;;;;;9.50;3.92;;;12.00;99.90;;;;;;5073174;28;20529;-74
2022/06/10 02:25:50;;;;;;;11.90;3.65;;;12.00;99.90;;;;;;5073225;28;20044;-74
2022/06/10 02:28:24;;;;;;;10.32;3.78;;;12.00;99.90;;;;;;5073132;28;20579;-74
2022/06/10 02:30:57;;;;;;;10.15;3.47;;;12.00;99.90;;;;;;5072729;28;20044;-74
2022/06/10 02:33:23;;;;;;;8.43;4.03;;;12.00;99.90;;;;;;5073047;28;20570;-74
2022/06/10 02:35:54;;;;;;;8.85;3.58;;;12.00;99.90;;;;;;5072908;28;20119;-74
2022/06/10 02:38:58;;;;;;;8.13;3.35;;;11.90;99.90;;;;;;5072834;28;20079;-74
2022/06/10 02:41:23;;;;;;;9.82;3.70;;;11.90;99.90;;;;;;5071483;28;20055;-74
2022/06/10 02:44:03;;;;;;;17.52;4.72;;;11.90;99.90;;;;;;5073087;28;20123;-74
2022/06/10 02:46:38;;;;;;;8.20;3.20;;;11.90;99.90;;;;;;5072772;28;20048;-74
2022/06/10 02:49:14;;;;;;;9.13;3.50;;;11.80;99.90;;;;;;5074259;28;20066;-74
2022/06/10 02:51:40;;;;;;;6.72;3.80;;;11.80;99.90;;;;;;5072421;28;20049;-74
2022/06/10 02:54:21;;;;;;;13.07;4.05;;;11.80;99.90;;;;;;5072644;28;20513;-74
2022/06/10 02:56:46;;;;;;;9.13;4.00;;;11.80;99.90;;;;;;5072369;28;20047;-74
2022/06/10 03:02:14;;;;;;;10.38;3.60;;;11.80;99.90;;;;;;5106039;28;20048;-74
2022/06/10 03:05:17;;;;;;;9.27;3.75;;;11.80;99.90;;;;;;5072366;28;20052;-74
2022/06/10 03:07:55;;;;;;;7.53;4.10;;;11.80;99.90;;;;;;5072399;28;20522;-74
2022/06/10 03:10:32;;;;;;;5.95;3.80;;;11.80;99.90;;;;;;5072049;28;20498;-74
2022/06/10 03:13:14;;;;;;;9.48;3.67;;;11.70;99.90;;;;;;5072160;28;20068;-74
2022/06/10 03:15:55;;;;;;;8.05;3.70;;;11.80;99.90;;;;;;5073314;28;20115;-74
2022/06/10 03:18:36;;;;;;;10.55;4.10;;;11.80;99.90;;;;;;5072327;28;20037;-74
2022/06/10 03:21:22;;;;;;;12.00;4.38;;;11.80;99.90;;;;;;5071673;28;20524;-74
2022/06/10 03:24:26;;;;;;;7.55;4.13;;;11.70;99.90;;;;;;5089533;28;20047;-73
2022/06/10 03:27:11;;;;;;;9.48;4.15;;;11.70;99.90;;;;;;5072578;28;20056;-73
2022/06/10 03:30:06;;;;;;;12.18;4.80;;;11.70;99.90;;;;;;5071979;28;20056;-74
2022/06/10 03:32:35;;;;;;;8.45;4.43;;;11.70;99.90;;;;;;5068809;28;20071;-75
2022/06/10 03:35:44;;;;;;;9.13;4.53;;;11.70;99.90;;;;;;5073040;28;20032;-74
2022/06/10 03:38:10;;;;;;;8.93;4.20;;;11.70;99.90;;;;;;5072061;28;20101;-73
2022/06/10 03:40:36;;;;;;;8.23;4.22;;;11.70;99.90;;;;;;5071530;28;20036;-74
2022/06/10 03:43:04;;;;;;;10.13;3.95;;;11.70;99.90;;;;;;5073097;28;20044;-73
2022/06/10 03:45:49;;;;;;;11.18;4.15;;;11.70;99.90;;;;;;5071921;28;20119;-73
2022/06/10 03:48:21;;;;;;;12.45;4.82;;;11.70;99.90;;;;;;5071837;28;20044;-73
2022/06/10 03:50:48;;;;;;;9.52;4.20;;;11.70;99.90;;;;;;5071554;28;20090;-74
2022/06/10 03:53:18;;;;;;;9.25;4.15;;;11.70;99.90;;;;;;5071379;28;20051;-74
2022/06/10 03:55:43;;;;;;;9.05;4.25;;;11.70;99.90;;;;;;5071428;28;20072;-73
2022/06/10 03:58:10;;;;;;;5.93;3.60;;;11.70;99.90;;;;;;5071569;28;20071;-74
2022/06/10 04:00:36;;;;;;;8.95;3.53;;;11.70;99.90;;;;;;5071058;28;20075;-74
2022/06/10 04:03:02;;;;;;;7.95;3.58;;;11.80;99.90;;;;;;5071280;28;20036;-74
2022/06/10 04:05:27;;;;;;;16.05;4.75;;;11.80;99.90;;;;;;5071133;28;20229;-74
2022/06/10 04:07:53;;;;;;;7.47;3.70;;;11.80;99.90;;;;;;5070421;28;20040;-74
2022/06/10 04:10:22;;;;;;;9.82;3.78;;;11.80;99.90;;;;;;5070867;28;20168;-74
2022/06/10 04:12:49;;;;;;;8.18;4.38;;;11.80;99.90;;;;;;5071008;28;20055;-74
2022/06/10 04:15:15;;;;;;;7.57;4.18;;;11.90;99.90;;;;;;5071254;28;20029;-75
2022/06/10 04:17:48;;;;;;;10.30;4.03;;;11.90;99.90;;;;;;5070950;28;20128;-74
2022/06/10 04:20:15;;;;;;;;;;;12.00;99.90;;;;;;5071222;28;20090;-74
2022/06/10 04:22:41;;;;;;;14.40;4.78;;;12.00;99.90;;;;;;5104650;28;20006;-74
2022/06/10 04:25:07;;;;;;;9.95;3.83;;;12.00;99.90;;;;;;5070998;28;20140;-74
2022/06/10 04:27:32;;;;;;;7.90;3.78;;;12.00;99.90;;;;;;5072116;28;20111;-73
2022/06/10 04:29:58;;;;;;;12.13;4.07;;;12.20;99.90;;;;;;5070387;28;20391;-74
2022/06/10 04:32:24;;;;;;;14.32;4.70;;;12.20;99.90;;;;;;5104794;28;20090;-74
2022/06/10 04:34:49;;;;;;;15.40;4.13;;;12.30;99.90;;;;;;5070396;28;20071;-74
2022/06/10 04:37:15;;;;;;;10.52;4.00;;;12.30;99.90;;;;;;5070690;28;20039;-74
2022/06/10 04:39:40;;;;;;;11.88;4.85;;;12.40;99.90;;;;;;5071282;28;20037;-74
2022/06/10 04:42:06;;;;;;;9.52;3.80;;;12.60;99.90;;;;;;5070353;28;20052;-74
2022/06/10 04:44:32;;;;;;;14.10;4.70;;;12.60;99.90;;;;;;5070815;28;20045;-74
2022/06/10 04:46:58;;;;;;;6.53;4.10;;;12.80;99.90;;;;;;5070568;28;20047;-74
2022/06/10 04:49:23;;;;;;;11.57;4.15;;;13.00;99.90;;;;;;5070392;28;20064;-74
2022/06/10 04:51:49;;;;;;;7.43;4.03;;;13.30;99.90;;;;;;5070037;28;20087;-74
2022/06/10 04:54:14;;;;;;;10.40;3.58;;;13.50;99.90;;;;;;5070789;28;20040;-74
2022/06/10 04:56:40;;;;;;;13.60;4.18;;;13.80;99.90;;;;;;5071834;28;20609;-74
2022/06/10 04:59:06;;;;;;;7.78;3.80;;;14.10;99.90;;;;;;5071838;28;20522;-74
2022/06/10 05:01:31;;;;;;;11.50;3.78;;;14.40;99.90;;;;;;5070050;28;20414;-75
2022/06/10 05:03:57;;;;;;;7.93;3.80;;;14.70;99.90;;;;;;5070164;28;20047;-74
2022/06/10 05:06:23;;;;;;;10.80;3.67;;;15.00;99.90;;;;;;5070369;28;20098;-74
2022/06/10 05:08:49;;;;;;;13.82;3.80;;;15.40;99.90;;;;;;5070531;28;20048;-74
2022/06/10 05:11:15;;;;;;;9.93;3.00;;;15.60;99.90;;;;;;5069846;28;20058;-74
2022/06/10 05:13:40;;;;;;;10.38;3.50;;;16.00;99.90;;;;;;5070289;28;20124;-74
2022/06/10 05:16:06;;;;;;;11.82;3.80;;;16.30;99.90;;;;;;5070361;28;20036;-75
2022/06/10 05:18:32;;;;;;;15.15;4.05;;;16.70;99.90;;;;;;5087254;28;20394;-75
2022/06/10 05:20:58;;;;;;;9.45;3.63;;;17.10;99.90;;;;;;5074073;28;20037;-75
2022/06/10 05:23:25;;;;;;;12.65;3.38;;;17.40;99.90;;;;;;5074572;28;20033;-74
2022/06/10 05:25:52;;;;;;;12.25;3.60;;;17.90;99.90;;;;;;5074300;28;20045;-74
2022/06/10 05:28:19;;;;;;;12.35;3.60;;;17.90;99.90;;;;;;5074579;28;20551;-74
2022/06/10 05:30:45;;;;;;;10.85;3.40;;;17.90;99.90;;;;;;5073751;28;20413;-74
2022/06/10 05:33:11;;;;;;;12.55;3.85;;;17.80;99.90;;;;;;5075180;28;20045;-74
2022/06/10 05:35:38;;;;;;;13.45;3.63;;;17.70;99.90;;;;;;5075374;28;20392;-74
2022/06/10 05:38:05;;;;;;;12.43;3.63;;;17.60;99.90;;;;;;5073936;28;20086;-74
2022/06/10 05:40:32;;;;;;;11.98;3.42;;;17.40;99.90;;;;;;5074864;28;20498;-75
2022/06/10 05:42:58;;;;;;;9.07;3.20;;;17.40;99.90;;;;;;5074264;28;20090;-74
2022/06/10 05:45:24;;;;;;;10.27;3.30;;;17.20;99.90;;;;;;5075214;28;20078;-75
2022/06/10 05:47:55;;;;;;;11.25;3.10;;;17.00;99.90;;;;;;5074000;28;20044;-75
2022/06/10 05:50:35;;;;;;;7.72;2.97;;;16.90;99.90;;;;;;5074979;28;20048;-75
2022/06/10 05:53:02;;;;;;;8.30;3.42;;;16.80;99.90;;;;;;5073781;28;20133;-74
2022/06/10 05:55:31;;;;;;;14.80;4.30;;;16.60;99.90;;;;;;5073965;28;20040;-75
2022/06/10 05:57:56;;;;;;;9.90;3.72;;;16.50;99.90;;;;;;5057026;28;20040;-74
2022/06/10 06:00:26;;;;;;;9.27;3.00;;;16.40;99.90;;;;;;5073239;28;20048;-75
2022/06/10 06:02:52;;;;;;;8.80;3.50;;;16.30;99.90;;;;;;5073507;28;20071;-75
2022/06/10 06:05:20;;;;;;;11.75;4.50;;;16.20;99.90;;;;;;5073570;28;20090;-74
2022/06/10 06:07:47;;;;;;;10.25;3.67;;;16.10;99.90;;;;;;5073428;28;20119;-74
2022/06/10 06:10:16;;;;;;;8.52;3.63;;;16.10;99.90;;;;;;5073165;28;20075;-74
2022/06/10 06:12:42;;;;;;;9.40;3.55;;;16.10;99.90;;;;;;5089919;28;20032;-75
2022/06/10 06:15:08;;;;;;;8.73;3.40;;;15.90;99.90;;;;;;5073327;28;20082;-74
2022/06/10 06:17:35;;;;;;;8.00;3.17;;;16.00;99.90;;;;;;5107182;28;20040;-75
2022/06/10 06:20:00;;;;;;;9.90;4.07;;;16.10;99.90;;;;;;5073231;28;20074;-74
2022/06/10 06:22:26;;;;;;;13.88;3.85;;;15.90;99.90;;;;;;5073216;28;20044;-74
2022/06/10 06:24:53;;;;;;;11.88;4.35;;;16.00;99.90;;;;;;5073420;28;20083;-72
2022/06/10 06:27:19;;;;;;;11.95;3.47;;;16.10;99.90;;;;;;5074270;28;20040;-72
2022/06/10 06:29:45;;;;;;;14.80;3.60;;;16.20;99.90;;;;;;5073956;28;20517;-72
2022/06/10 06:32:11;;;;;;;14.55;4.15;;;16.40;99.90;;;;;;5106383;28;20086;-73
2022/06/10 06:34:38;;;;;;;8.55;3.53;;;16.60;99.90;;;;;;5073019;28;20036;-73
2022/06/10 06:37:05;;;;;;;10.05;3.85;;;16.60;99.90;;;;;;5073024;28;20029;-73
2022/06/10 06:39:31;;;;;;;10.63;3.63;;;16.60;99.90;;;;;;5073145;28;20044;-73
2022/06/10 06:41:57;;;;;;;10.23;3.38;;;16.60;99.90;;;;;;5106269;28;20044;-73
2022/06/10 06:44:23;;;;;;;9.07;3.38;;;16.60;99.90;;;;;;5074226;28;20488;-72
2022/06/10 06:46:49;;;;;;;9.63;4.28;;;16.50;99.90;;;;;;5072663;28;20155;-73
2022/06/10 06:49:22;;;;;;;10.38;2.88;;;16.50;99.90;;;;;;5073344;28;20492;-72
2022/06/10 06:51:49;;;;;;;7.03;3.00;;;16.50;99.90;;;;;;5073096;28;20158;-73
2022/06/10 06:54:16;;;;;;;9.85;3.15;;;16.50;99.90;;;;;;5070740;28;20097;-73
2022/06/10 06:56:42;;;;;;;8.77;2.80;;;16.50;99.90;;;;;;5072104;28;20040;-72
2022/06/10 06:59:07;;;;;;;7.55;3.25;;;16.40;99.90;;;;;;5072045;28;20048;-73
2022/06/10 07:01:34;;;;;;;9.57;2.67;;;16.30;99.90;;;;;;5072006;28;20489;-73
2022/06/10 07:04:00;;;;;;;8.60;3.42;;;16.20;99.90;;;;;;5073798;28;20051;-72
2022/06/10 07:06:25;;;;;;;9.27;3.92;;;16.10;99.90;;;;;;5073464;28;20032;-72
2022/06/10 07:08:51;;;;;;;15.07;5.18;;;16.00;99.90;;;;;;5072065;28;20043;-72
2022/06/10 07:11:17;;;;;;;11.70;4.72;;;15.90;99.90;;;;;;5073001;28;20538;-73
2022/06/10 07:13:43;;;;;;;13.40;4.63;;;15.90;99.90;;;;;;5073702;28;20075;-73
2022/06/10 07:16:10;;;;;;;14.15;4.53;;;16.10;99.90;;;;;;5073321;28;20055;-73
2022/06/10 07:18:36;;;;;;;14.68;4.85;;;16.30;99.90;;;;;;5073500;28;20052;-72
2022/06/10 07:21:03;;;;;;;13.80;4.75;;;16.20;99.90;;;;;;5072002;28;20032;-73
2022/06/10 07:23:28;;;;;;;12.05;5.00;;;16.30;99.90;;;;;;5073235;28;20064;-73
2022/06/10 07:25:55;;;;;;;15.32;4.60;;;16.30;99.90;;;;;;5071993;28;20036;-73
2022/06/10 07:28:21;;;;;;;15.20;4.50;;;16.40;99.90;;;;;;5071955;28;20694;-72
2022/06/10 07:30:47;;;;;;;15.80;5.03;;;16.50;99.90;;;;;;5071802;28;20045;-73
2022/06/10 07:33:14;;;;;;;9.68;4.35;;;16.60;99.90;;;;;;5105818;28;20040;-73
2022/06/10 07:35:40;;;;;;;17.08;5.22;;;16.70;99.90;;;;;;5071759;28;20128;-73
2022/06/10 07:38:07;;;;;;;11.77;5.35;;;16.80;99.90;;;;;;5071747;28;20033;-73
2022/06/10 07:43:21;;;;;;;14.65;5.47;;;16.80;99.90;;;;;;5104865;28;20518;-73
2022/06/10 07:45:47;;;;;;;13.45;5.40;;;16.80;99.90;;;;;;5105419;28;20037;-72
2022/06/10 07:48:13;;;;;;;10.68;5.10;;;16.80;99.90;;;;;;5072627;28;20445;-73
2022/06/10 07:50:41;;;;;;;9.27;5.38;;;16.90;99.90;;;;;;5104965;28;20056;-72
2022/06/10 07:53:08;;;;;;;10.30;5.38;;;17.00;99.90;;;;;;5072829;28;20060;-73
2022/06/10 07:55:35;;;;;;;12.52;6.57;;;16.90;99.90;;;;;;5072866;28;20039;-72
2022/06/10 07:58:01;;;;;;;15.38;6.13;;;17.00;99.90;;;;;;5072760;28;20068;-72
2022/06/10 08:00:27;;;;;;;13.02;5.55;;;17.00;99.90;;;;;;5072264;28;20040;-72
2022/06/10 08:02:53;;;;;;;14.85;7.30;;;17.00;99.90;;;;;;5071244;28;20040;-72
2022/06/10 08:05:19;;;;;;;10.63;6.00;;;16.90;99.90;;;;;;5071503;28;20059;-72
2022/06/10 08:07:46;;;;;;;14.80;7.07;;;16.90;99.90;;;;;;5071155;28;20097;-72
2022/06/10 08:10:36;;;;;;;14.48;8.73;;;16.90;99.90;;;;;;5072270;28;20051;-73
2022/06/10 08:13:04;;;;;;;14.63;7.45;;;17.00;99.90;;;;;;5071057;28;20036;-72
2022/06/10 08:15:30;;;;;;;11.23;6.68;;;17.00;99.90;;;;;;5072207;28;20115;-72
2022/06/10 08:17:58;;;;;;;12.13;6.90;;;17.00;99.90;;;;;;5072192;28;20510;-72
2022/06/10 08:23:28;;;;;;;11.90;6.22;;;17.20;99.90;;;;;;5071840;28;20135;-72
2022/06/10 08:25:56;;;;;;;13.80;6.15;;;17.20;99.90;;;;;;5070953;28;20450;-72
2022/06/10 08:28:22;;;;;;;12.07;6.22;;;17.30;99.90;;;;;;5069194;28;20077;-71
2022/06/10 08:30:48;;;;;;;10.23;6.05;;;17.30;99.90;;;;;;5071205;28;20040;-72
2022/06/10 08:33:15;;;;;;;10.65;6.35;;;17.40;99.90;;;;;;5070257;28;20049;-71
2022/06/10 08:35:40;;;;;;;14.27;5.90;;;17.30;99.90;;;;;;5068988;28;20403;-72
2022/06/10 08:38:09;;;;;;;11.32;6.28;;;17.30;99.90;;;;;;5070285;28;20047;-71
2022/06/10 08:40:59;;;;;;;12.27;5.82;;;17.30;99.90;;;;;;5070812;28;20401;-72
2022/06/10 08:43:39;;;;;;;11.88;5.63;;;17.30;99.90;;;;;;5069337;28;20040;-72
2022/06/10 08:46:10;;;;;;;11.50;5.53;;;17.30;99.90;;;;;;5071825;28;20517;-73
2022/06/10 08:48:50;;;;;;;13.43;5.97;;;17.30;99.90;;;;;;5071869;28;20076;-72
2022/06/10 08:51:44;;;;;;;11.82;5.82;;;17.20;99.90;;;;;;5070149;28;20123;-72
2022/06/10 08:54:25;;;;;;;18.48;5.90;;;17.20;99.90;;;;;;5070362;28;20091;-71
2022/06/10 08:56:56;;;;;;;10.98;5.97;;;17.10;99.90;;;;;;5070465;28;20040;-72
2022/06/10 08:59:36;;;;;;;19.10;6.93;;;17.20;99.90;;;;;;5070335;28;20043;-72
2022/06/10 09:02:17;;;;;;;12.55;5.63;;;17.20;99.90;;;;;;5068846;28;20036;-72
2022/06/10 09:05:07;;;;;;;14.40;6.50;;;17.30;99.90;;;;;;5069373;28;20032;-72
2022/06/10 09:07:41;;;;;;;10.88;5.75;;;17.30;99.90;;;;;;5070412;28;20033;-72
2022/06/10 09:10:17;;;;;;;20.77;7.22;;;17.30;99.90;;;;;;5069365;28;20043;-72
2022/06/10 09:12:54;;;;;;;11.68;6.78;;;17.30;99.90;;;;;;5069905;28;20041;-72
2022/06/10 09:15:21;;;;;;;12.25;7.13;;;17.20;99.90;;;;;;5070414;28;20045;-72
2022/06/10 09:17:57;;;;;;;13.55;7.28;;;17.10;99.90;;;;;;5071540;28;20041;-74
2022/06/10 09:20:49;;;;;;;14.05;6.82;;;17.20;99.90;;;;;;5103816;28;20072;-72
2022/06/10 09:23:19;;;;;;;14.18;7.10;;;17.40;99.90;;;;;;5071451;28;20091;-72
2022/06/10 09:25:47;;;;;;;11.63;6.60;;;17.80;99.90;;;;;;5069633;28;20044;-73
2022/06/10 09:28:14;;;;;;;16.48;6.63;;;18.20;99.90;;;;;;5069981;28;20036;-73
2022/06/10 09:30:43;;;;;;;16.70;7.47;;;18.60;99.90;;;;;;5070691;28;20624;-73
2022/06/10 09:33:21;;;;;;;15.63;7.18;;;18.90;99.90;;;;;;5070040;28;20123;-73
2022/06/10 09:36:01;;;;;;;10.77;6.30;;;18.80;99.90;;;;;;5070724;28;20037;-73
2022/06/10 09:38:27;;;;;;;14.25;7.65;;;18.60;99.90;;;;;;5069328;28;20521;-74
2022/06/10 09:40:58;;;;;;;13.82;6.72;;;18.50;99.90;;;;;;5071018;28;20072;-73
2022/06/10 09:43:36;;;;;;;17.60;7.47;;;18.20;99.90;;;;;;5070296;28;20468;-72
2022/06/10 09:46:24;;;;;;;14.13;6.75;;;18.00;99.90;;;;;;5071459;28;20459;-73
2022/06/10 09:49:17;;;;;;;11.60;6.00;;;17.90;99.90;;;;;;5070438;28;20048;-73
2022/06/10 09:51:46;;;;;;;10.15;5.55;;;17.70;99.90;;;;;;5069634;28;20090;-73
2022/06/10 09:54:39;;;;;;;15.73;6.65;;;17.70;99.90;;;;;;5069315;28;20119;-73
2022/06/10 09:57:15;;;;;;;12.20;6.57;;;17.70;99.90;;;;;;5071327;28;20109;-72
2022/06/10 10:00:03;;;;;;;14.00;7.38;;;17.70;99.90;;;;;;5074922;22;20047;-76
2022/06/10 10:03:02;;;;;;;15.20;7.50;;;17.70;99.90;;;;;;5033140;28;20060;-77
2022/06/10 10:05:43;;;;;;;18.05;6.70;;;17.80;99.90;;;;;;5051442;28;20080;-78
2022/06/10 10:08:32;;;;;;;15.18;6.38;;;17.80;99.90;;;;;;5053492;28;20044;-76
2022/06/10 10:11:12;;;;;;;16.60;6.47;;;17.90;99.90;;;;;;5053462;28;20051;-76
2022/06/10 10:14:08;;;;;;;18.75;6.43;;;18.00;99.90;;;;;;5053616;28;20049;-79
2022/06/10 10:17:06;;;;;;;16.83;6.05;;;18.10;99.90;;;;;;5036744;28;20490;-79
2022/06/10 10:20:33;;;;;;;11.30;7.30;;;18.30;99.90;;;;;;5049747;28;20037;-75
2022/06/10 10:23:18;;;;;;;16.00;7.07;;;18.40;99.90;;;;;;4966119;28;20059;-75
2022/06/10 10:25:46;;;;;;;10.77;5.90;;;18.50;99.90;;;;;;4976683;28;20046;-74
2022/06/10 10:28:25;;;;;;;10.80;5.93;;;18.60;99.90;;;;;;5034655;28;20083;-75
2022/06/10 10:31:01;;;;;;;11.77;6.65;;;18.60;99.90;;;;;;5053031;28;20055;-75
2022/06/10 10:33:27;;;;;;;14.55;6.68;;;18.80;99.90;;;;;;5054161;28;20049;-75
2022/06/10 10:35:56;;;;;;;12.20;6.10;;;19.10;99.90;;;;;;5052940;28;20051;-75
2022/06/10 10:38:31;;;;;;;11.57;5.88;;;19.30;99.90;;;;;;5036226;28;20078;-75
2022/06/10 10:40:56;;;;;;;14.45;5.70;;;19.40;99.90;;;;;;5053989;28;20041;-74
2022/06/10 10:43:26;;;;;;;8.98;5.55;;;19.50;99.90;;;;;;5052781;28;20099;-75
2022/06/10 10:46:04;;;;;;;10.32;5.60;;;19.30;99.90;;;;;;5052941;28;20502;-75
2022/06/10 10:48:37;;;;;;;15.27;6.65;;;19.30;99.90;;;;;;5052614;28;20499;-74
2022/06/10 10:51:28;;;;;;;15.50;5.47;;;19.50;99.90;;;;;;5052658;28;20490;-74
2022/06/10 10:53:56;;;;;;;11.60;6.10;;;19.60;99.90;;;;;;5044112;28;20037;-74
2022/06/10 10:56:35;;;;;;;9.68;6.22;;;19.70;99.90;;;;;;5032871;28;20073;-74
2022/06/10 10:59:01;;;;;;;16.45;5.65;;;19.60;99.90;;;;;;5021093;28;20063;-74
2022/06/10 11:01:45;;;;;;;14.88;6.68;;;19.60;99.90;;;;;;5032363;28;20460;-73
2022/06/10 11:04:32;;;;;;;11.00;5.65;;;19.60;99.90;;;;;;5039048;28;20037;-74
2022/06/10 11:07:18;;;;;;;10.55;5.22;;;19.50;99.90;;;;;;5048190;28;20029;-74
2022/06/10 11:09:50;;;;;;;12.98;4.90;;;19.50;99.90;;;;;;5031604;28;20399;-74
2022/06/10 11:12:20;;;;;;;14.55;5.40;;;19.50;99.90;;;;;;5051715;28;20045;-74
2022/06/10 11:14:49;;;;;;;11.45;5.47;;;19.40;99.90;;;;;;5052225;28;20099;-75
2022/06/10 11:17:19;;;;;;;8.68;5.40;;;19.60;99.90;;;;;;5032131;28;20033;-74
2022/06/10 11:19:52;;;;;;;8.93;4.55;;;19.60;99.90;;;;;;5033667;28;20049;-74
2022/06/10 11:22:27;;;;;;;9.40;4.45;;;19.60;99.90;;;;;;5056836;28;20051;-74
2022/06/10 11:25:17;;;;;;;10.45;4.50;;;19.60;99.90;;;;;;5047402;28;20045;-73
2022/06/10 11:27:48;;;;;;;14.13;4.97;;;19.70;99.90;;;;;;5048973;28;20134;-74
2022/06/10 11:30:16;;;;;;;14.20;4.78;;;19.60;99.90;;;;;;5050078;28;20052;-75
2022/06/10 11:32:48;;;;;;;10.60;4.75;;;19.60;99.90;;;;;;5050837;28;20045;-74
2022/06/10 11:35:33;;;;;;;11.13;4.38;;;19.50;99.90;;;;;;5052332;28;20048;-74
2022/06/10 11:38:17;;;;;;;10.48;4.38;;;19.30;99.90;;;;;;5042000;28;20061;-73
2022/06/10 11:40:50;;;;;;;12.57;5.20;;;19.30;99.90;;;;;;5031274;28;20048;-73
2022/06/10 11:43:33;;;;;;;11.55;4.55;;;19.10;99.90;;;;;;5051632;28;20115;-75
2022/06/10 11:46:25;;;;;;;10.77;4.63;;;19.20;99.90;;;;;;5050474;28;20053;-74
2022/06/10 11:48:59;;;;;;;11.10;4.55;;;19.20;99.90;;;;;;5050611;28;20162;-72
2022/06/10 11:51:58;;;;;;;8.93;4.40;;;19.30;99.90;;;;;;5051246;28;20406;-72
2022/06/10 11:54:52;;;;;;;9.65;4.38;;;19.30;99.90;;;;;;5034831;28;20384;-72
2022/06/10 12:00:27;;;;;;;11.50;5.07;;;19.20;99.90;;;;;;5049592;28;20389;-73
2022/06/10 12:03:19;;;;;;;11.15;4.47;;;19.50;99.90;;;;;;5034233;28;20055;-73
2022/06/10 12:05:49;;;;;;;12.02;4.72;;;19.70;99.90;;;;;;5020221;28;20507;-72
2022/06/10 12:08:37;;;;;;;7.50;3.78;;;19.70;99.90;;;;;;5034417;28;20045;-72
2022/06/10 12:11:06;;;;;;;14.05;4.22;;;19.70;99.90;;;;;;5049831;28;20045;-73
2022/06/10 12:13:37;;;;;;;14.20;4.47;;;19.80;99.90;;;;;;5034045;28;20045;-73
2022/06/10 12:16:05;;;;;;;10.45;3.42;;;20.10;99.90;;;;;;5050943;28;20067;-74
2022/06/10 12:18:39;;;;;;;9.45;3.58;;;20.40;99.90;;;;;;5051980;28;20120;-74
2022/06/10 12:21:05;;;;;;;12.55;4.22;;;20.60;99.90;;;;;;5034080;28;20161;-74
2022/06/10 12:23:35;;;;;;;10.40;4.32;;;20.60;99.90;;;;;;5050833;28;20394;-74
2022/06/10 12:26:10;;;;;;;10.50;3.95;;;20.50;99.90;;;;;;5050815;28;20540;-73
2022/06/10 12:29:14;;;;;;;12.48;4.53;;;20.40;99.90;;;;;;5050215;28;20045;-73
2022/06/10 12:32:07;;;;;;;15.32;4.88;;;20.30;99.90;;;;;;5023057;28;20136;-74
2022/06/10 12:35:03;;;;;;;7.03;3.22;;;20.30;99.90;;;;;;5049795;28;20037;-72
2022/06/10 12:37:43;;;;;;;10.77;4.07;;;20.50;99.90;;;;;;5051451;28;20048;-73
2022/06/10 12:40:20;;;;;;;5.72;3.47;;;20.60;99.90;;;;;;5049484;28;20041;-72
2022/06/10 12:42:50;;;;;;;12.40;4.35;;;20.70;99.90;;;;;;5047016;28;20048;-72
2022/06/10 12:45:46;;;;;;;7.43;3.65;;;20.80;99.90;;;;;;5033382;28;20088;-72
2022/06/10 12:48:16;;;;;;;9.52;3.13;;;20.90;99.90;;;;;;5051401;28;20037;-72
2022/06/10 12:50:56;;;;;;;13.50;3.83;;;21.00;99.90;;;;;;5050992;28;20041;-72
2022/06/10 12:53:49;;;;;;;8.23;3.67;;;21.20;99.90;;;;;;5044495;28;20131;-72
2022/06/10 12:56:23;;;;;;;11.85;3.90;;;21.20;99.90;;;;;;5047269;28;20451;-75
2022/06/10 12:59:24;;;;;;;11.88;3.75;;;21.00;99.90;;;;;;5051000;28;20493;-73
2022/06/10 13:01:51;;;;;;;11.70;4.63;;;20.80;99.90;;;;;;5048995;28;20096;-73
2022/06/10 13:04:19;;;;;;;10.45;3.15;;;20.80;99.90;;;;;;5044754;28;20410;-74
2022/06/10 13:06:48;;;;;;;7.47;3.60;;;20.80;99.90;;;;;;5051322;28;20498;-74
2022/06/10 13:09:15;;;;;;;9.18;4.82;;;20.60;99.90;;;;;;5033366;28;20513;-74
2022/06/10 13:12:07;;;;;;;13.00;4.18;;;20.40;99.90;;;;;;5050763;28;20402;-74
2022/06/10 13:14:36;;;;;;;13.88;4.20;;;20.30;99.90;;;;;;5027121;28;20045;-74
2022/06/10 13:17:24;;;;;;;7.75;3.40;;;20.30;99.90;;;;;;5049903;28;20040;-74
2022/06/10 13:19:53;;;;;;;6.95;3.80;;;20.20;99.90;;;;;;5049672;28;20037;-75
2022/06/10 13:22:18;;;;;;;9.32;3.70;;;20.20;99.90;;;;;;5049885;28;20044;-77
2022/06/10 13:25:07;;;;;;;9.10;3.22;;;20.10;99.90;;;;;;5049613;28;20399;-76